sensor_id;sensor_type;location;lat;lon;timestamp;P1;durP1;ratioP1;P2;durP2;ratioP2
32214;SDS011;18708;53.124;23.190;2023-06-22T00:00:49;15.32;;;13.70;;
32214;SDS011;18708;53.124;23.190;2023-06-22T00:03:17;23.23;;;18.23;;
32214;SDS011;18708;53.124;23.190;2023-06-22T00:05:44;23.40;;;17.63;;
32214;SDS011;18708;53.124;23.190;2023-06-22T00:08:10;20.58;;;18.20;;
32214;SDS011;18708;53.124;23.190;2023-06-22T00:10:36;21.98;;;17.60;;
32214;SDS011;18708;53.124;23.190;2023-06-22T00:13:02;21.73;;;18.02;;
32214;SDS011;18708;53.124;23.190;2023-06-22T00:15:28;24.20;;;19.30;;
32214;SDS011;18708;53.124;23.190;2023-06-22T00:17:54;23.38;;;19.40;;
32214;SDS011;18708;53.124;23.190;2023-06-22T00:20:19;22.85;;;18.92;;
32214;SDS011;18708;53.124;23.190;2023-06-22T00:22:45;21.58;;;19.10;;
32214;SDS011;18708;53.124;23.190;2023-06-22T00:25:11;25.10;;;19.90;;
32214;SDS011;18708;53.124;23.190;2023-06-22T00:27:36;23.83;;;19.42;;
32214;SDS011;18708;53.124;23.190;2023-06-22T00:30:02;23.17;;;18.83;;
32214;SDS011;18708;53.124;23.190;2023-06-22T00:32:28;22.10;;;18.92;;
32214;SDS011;18708;53.124;23.190;2023-06-22T00:34:54;24.35;;;19.65;;
32214;SDS011;18708;53.124;23.190;2023-06-22T00:37:20;24.60;;;17.75;;
32214;SDS011;18708;53.124;23.190;2023-06-22T00:39:50;23.55;;;19.15;;
32214;SDS011;18708;53.124;23.190;2023-06-22T00:42:16;24.15;;;18.67;;
32214;SDS011;18708;53.124;23.190;2023-06-22T00:44:42;19.88;;;16.70;;
32214;SDS011;18708;53.124;23.190;2023-06-22T00:47:09;14.35;;;12.85;;
32214;SDS011;18708;53.124;23.190;2023-06-22T00:49:37;16.42;;;14.13;;
32214;SDS011;18708;53.124;23.190;2023-06-22T00:52:04;17.65;;;14.50;;
32214;SDS011;18708;53.124;23.190;2023-06-22T00:54:34;15.98;;;14.15;;
32214;SDS011;18708;53.124;23.190;2023-06-22T00:57:01;21.40;;;16.92;;
32214;SDS011;18708;53.124;23.190;2023-06-22T00:59:27;22.13;;;17.77;;
32214;SDS011;18708;53.124;23.190;2023-06-22T01:01:53;28.40;;;18.65;;
32214;SDS011;18708;53.124;23.190;2023-06-22T01:04:19;24.33;;;18.75;;
32214;SDS011;18708;53.124;23.190;2023-06-22T01:06:54;21.30;;;18.83;;
32214;SDS011;18708;53.124;23.190;2023-06-22T01:09:31;18.05;;;15.30;;
32214;SDS011;18708;53.124;23.190;2023-06-22T01:12:01;23.42;;;19.23;;
32214;SDS011;18708;53.124;23.190;2023-06-22T01:14:35;18.48;;;15.85;;
32214;SDS011;18708;53.124;23.190;2023-06-22T01:17:08;19.02;;;16.75;;
32214;SDS011;18708;53.124;23.190;2023-06-22T01:22:28;24.30;;;17.80;;
32214;SDS011;18708;53.124;23.190;2023-06-22T01:30:30;17.48;;;13.93;;
32214;SDS011;18708;53.124;23.190;2023-06-22T01:32:59;15.88;;;13.00;;
32214;SDS011;18708;53.124;23.190;2023-06-22T01:35:27;15.13;;;13.52;;
32214;SDS011;18708;53.124;23.190;2023-06-22T01:37:54;14.10;;;12.38;;
32214;SDS011;18708;53.124;23.190;2023-06-22T01:40:21;17.38;;;14.25;;
32214;SDS011;18708;53.124;23.190;2023-06-22T01:42:47;44.13;;;14.52;;
32214;SDS011;18708;53.124;23.190;2023-06-22T01:45:15;14.60;;;11.73;;
32214;SDS011;18708;53.124;23.190;2023-06-22T01:47:41;21.48;;;10.05;;
32214;SDS011;18708;53.124;23.190;2023-06-22T01:50:07;12.18;;;10.43;;
32214;SDS011;18708;53.124;23.190;2023-06-22T01:52:34;12.23;;;9.98;;
32214;SDS011;18708;53.124;23.190;2023-06-22T01:55:00;13.60;;;10.82;;
32214;SDS011;18708;53.124;23.190;2023-06-22T01:57:26;13.60;;;11.18;;
32214;SDS011;18708;53.124;23.190;2023-06-22T02:02:27;13.23;;;10.30;;
32214;SDS011;18708;53.124;23.190;2023-06-22T02:05:03;16.17;;;11.52;;
32214;SDS011;18708;53.124;23.190;2023-06-22T02:07:37;12.73;;;11.05;;
32214;SDS011;18708;53.124;23.190;2023-06-22T02:10:09;12.15;;;10.77;;
32214;SDS011;18708;53.124;23.190;2023-06-22T02:12:38;12.48;;;10.63;;
32214;SDS011;18708;53.124;23.190;2023-06-22T02:15:06;12.85;;;10.00;;
32214;SDS011;18708;53.124;23.190;2023-06-22T02:17:33;11.75;;;10.07;;
32214;SDS011;18708;53.124;23.190;2023-06-22T02:19:59;15.02;;;10.95;;
32214;SDS011;18708;53.124;23.190;2023-06-22T02:22:28;11.23;;;10.02;;
32214;SDS011;18708;53.124;23.190;2023-06-22T02:24:54;13.93;;;11.40;;
32214;SDS011;18708;53.124;23.190;2023-06-22T02:27:19;13.43;;;10.48;;
32214;SDS011;18708;53.124;23.190;2023-06-22T02:29:45;14.65;;;11.70;;
32214;SDS011;18708;53.124;23.190;2023-06-22T02:32:11;10.48;;;8.93;;
32214;SDS011;18708;53.124;23.190;2023-06-22T02:34:36;10.25;;;8.68;;
32214;SDS011;18708;53.124;23.190;2023-06-22T02:37:02;11.15;;;9.68;;
32214;SDS011;18708;53.124;23.190;2023-06-22T02:39:28;10.45;;;9.38;;
32214;SDS011;18708;53.124;23.190;2023-06-22T02:41:54;10.88;;;8.98;;
32214;SDS011;18708;53.124;23.190;2023-06-22T02:44:20;11.38;;;9.90;;
32214;SDS011;18708;53.124;23.190;2023-06-22T02:46:47;13.32;;;9.65;;
32214;SDS011;18708;53.124;23.190;2023-06-22T02:49:13;12.38;;;9.95;;
32214;SDS011;18708;53.124;23.190;2023-06-22T02:51:41;11.02;;;9.40;;
32214;SDS011;18708;53.124;23.190;2023-06-22T02:54:09;10.05;;;9.05;;
32214;SDS011;18708;53.124;23.190;2023-06-22T02:56:35;11.60;;;8.55;;
32214;SDS011;18708;53.124;23.190;2023-06-22T02:59:02;15.02;;;12.32;;
32214;SDS011;18708;53.124;23.190;2023-06-22T03:01:28;13.75;;;11.25;;
32214;SDS011;18708;53.124;23.190;2023-06-22T03:03:55;15.32;;;11.45;;
32214;SDS011;18708;53.124;23.190;2023-06-22T03:06:24;11.80;;;9.90;;
32214;SDS011;18708;53.124;23.190;2023-06-22T03:08:54;11.48;;;10.27;;
32214;SDS011;18708;53.124;23.190;2023-06-22T03:11:24;11.07;;;8.45;;
32214;SDS011;18708;53.124;23.190;2023-06-22T03:13:50;10.13;;;8.27;;
32214;SDS011;18708;53.124;23.190;2023-06-22T03:16:17;10.45;;;9.32;;
32214;SDS011;18708;53.124;23.190;2023-06-22T03:18:43;12.40;;;10.57;;
32214;SDS011;18708;53.124;23.190;2023-06-22T03:21:09;13.50;;;11.25;;
32214;SDS011;18708;53.124;23.190;2023-06-22T03:23:34;17.45;;;13.75;;
32214;SDS011;18708;53.124;23.190;2023-06-22T03:26:01;14.32;;;11.60;;
32214;SDS011;18708;53.124;23.190;2023-06-22T03:28:27;14.93;;;12.68;;
32214;SDS011;18708;53.124;23.190;2023-06-22T03:30:53;16.67;;;13.13;;
32214;SDS011;18708;53.124;23.190;2023-06-22T03:33:19;16.77;;;13.48;;
32214;SDS011;18708;53.124;23.190;2023-06-22T03:35:44;17.23;;;14.38;;
32214;SDS011;18708;53.124;23.190;2023-06-22T03:38:10;12.73;;;10.95;;
32214;SDS011;18708;53.124;23.190;2023-06-22T03:40:36;11.40;;;9.88;;
32214;SDS011;18708;53.124;23.190;2023-06-22T03:43:01;12.70;;;10.65;;
32214;SDS011;18708;53.124;23.190;2023-06-22T03:45:27;11.35;;;10.13;;
32214;SDS011;18708;53.124;23.190;2023-06-22T03:47:53;10.80;;;9.70;;
32214;SDS011;18708;53.124;23.190;2023-06-22T03:50:18;12.93;;;10.45;;
32214;SDS011;18708;53.124;23.190;2023-06-22T03:52:45;13.38;;;11.90;;
32214;SDS011;18708;53.124;23.190;2023-06-22T03:55:11;16.25;;;14.00;;
32214;SDS011;18708;53.124;23.190;2023-06-22T03:57:37;15.90;;;13.27;;
32214;SDS011;18708;53.124;23.190;2023-06-22T04:00:03;17.23;;;13.70;;
32214;SDS011;18708;53.124;23.190;2023-06-22T04:02:31;16.88;;;14.27;;
32214;SDS011;18708;53.124;23.190;2023-06-22T04:04:56;22.27;;;16.20;;
32214;SDS011;18708;53.124;23.190;2023-06-22T04:07:22;25.90;;;17.48;;
32214;SDS011;18708;53.124;23.190;2023-06-22T04:09:48;26.77;;;17.17;;
32214;SDS011;18708;53.124;23.190;2023-06-22T04:12:13;22.60;;;16.45;;
32214;SDS011;18708;53.124;23.190;2023-06-22T04:14:39;26.95;;;17.95;;
32214;SDS011;18708;53.124;23.190;2023-06-22T04:17:05;22.20;;;17.65;;
32214;SDS011;18708;53.124;23.190;2023-06-22T04:19:30;20.95;;;17.70;;
32214;SDS011;18708;53.124;23.190;2023-06-22T04:21:56;21.48;;;16.77;;
32214;SDS011;18708;53.124;23.190;2023-06-22T04:24:22;20.08;;;16.80;;
32214;SDS011;18708;53.124;23.190;2023-06-22T04:26:47;26.10;;;18.55;;
32214;SDS011;18708;53.124;23.190;2023-06-22T04:29:13;23.60;;;16.05;;
32214;SDS011;18708;53.124;23.190;2023-06-22T04:31:39;20.33;;;16.95;;
32214;SDS011;18708;53.124;23.190;2023-06-22T04:34:06;19.30;;;15.90;;
32214;SDS011;18708;53.124;23.190;2023-06-22T04:36:36;23.67;;;17.10;;
32214;SDS011;18708;53.124;23.190;2023-06-22T04:41:34;19.17;;;13.65;;
32214;SDS011;18708;53.124;23.190;2023-06-22T04:44:10;15.85;;;13.40;;
32214;SDS011;18708;53.124;23.190;2023-06-22T04:46:37;17.45;;;14.07;;
32214;SDS011;18708;53.124;23.190;2023-06-22T04:49:06;20.75;;;16.73;;
32214;SDS011;18708;53.124;23.190;2023-06-22T04:51:36;22.95;;;17.55;;
32214;SDS011;18708;53.124;23.190;2023-06-22T04:54:05;22.17;;;16.98;;
32214;SDS011;18708;53.124;23.190;2023-06-22T04:56:31;20.52;;;16.83;;
32214;SDS011;18708;53.124;23.190;2023-06-22T04:58:58;22.63;;;17.40;;
32214;SDS011;18708;53.124;23.190;2023-06-22T05:01:23;21.10;;;16.92;;
32214;SDS011;18708;53.124;23.190;2023-06-22T05:03:50;19.40;;;15.00;;
32214;SDS011;18708;53.124;23.190;2023-06-22T05:06:20;19.38;;;15.18;;
32214;SDS011;18708;53.124;23.190;2023-06-22T05:08:46;18.80;;;15.48;;
32214;SDS011;18708;53.124;23.190;2023-06-22T05:11:12;18.25;;;15.75;;
32214;SDS011;18708;53.124;23.190;2023-06-22T05:13:38;18.60;;;14.90;;
32214;SDS011;18708;53.124;23.190;2023-06-22T05:16:04;17.73;;;14.50;;
32214;SDS011;18708;53.124;23.190;2023-06-22T05:18:31;17.35;;;14.30;;
32214;SDS011;18708;53.124;23.190;2023-06-22T05:20:57;18.42;;;14.23;;
32214;SDS011;18708;53.124;23.190;2023-06-22T05:23:23;17.40;;;13.75;;
32214;SDS011;18708;53.124;23.190;2023-06-22T05:25:49;17.05;;;14.10;;
32214;SDS011;18708;53.124;23.190;2023-06-22T05:28:14;17.77;;;13.82;;
32214;SDS011;18708;53.124;23.190;2023-06-22T05:30:40;17.42;;;13.93;;
32214;SDS011;18708;53.124;23.190;2023-06-22T05:33:06;19.02;;;14.55;;
32214;SDS011;18708;53.124;23.190;2023-06-22T05:35:32;18.33;;;14.30;;
32214;SDS011;18708;53.124;23.190;2023-06-22T05:37:57;21.67;;;15.50;;
32214;SDS011;18708;53.124;23.190;2023-06-22T05:40:23;17.58;;;14.20;;
32214;SDS011;18708;53.124;23.190;2023-06-22T05:42:48;18.83;;;14.50;;
32214;SDS011;18708;53.124;23.190;2023-06-22T05:45:14;18.02;;;14.75;;
32214;SDS011;18708;53.124;23.190;2023-06-22T05:47:40;17.30;;;14.85;;
32214;SDS011;18708;53.124;23.190;2023-06-22T05:50:06;17.45;;;14.80;;
32214;SDS011;18708;53.124;23.190;2023-06-22T05:52:33;18.08;;;14.75;;
32214;SDS011;18708;53.124;23.190;2023-06-22T05:54:59;18.38;;;13.77;;
32214;SDS011;18708;53.124;23.190;2023-06-22T05:57:27;17.58;;;14.55;;
32214;SDS011;18708;53.124;23.190;2023-06-22T05:59:53;18.15;;;14.60;;
32214;SDS011;18708;53.124;23.190;2023-06-22T06:02:19;18.42;;;15.00;;
32214;SDS011;18708;53.124;23.190;2023-06-22T06:04:45;17.88;;;15.07;;
32214;SDS011;18708;53.124;23.190;2023-06-22T06:07:10;19.77;;;15.05;;
32214;SDS011;18708;53.124;23.190;2023-06-22T06:09:36;16.85;;;14.57;;
32214;SDS011;18708;53.124;23.190;2023-06-22T06:12:02;15.10;;;12.70;;
32214;SDS011;18708;53.124;23.190;2023-06-22T06:14:28;17.90;;;14.73;;
32214;SDS011;18708;53.124;23.190;2023-06-22T06:16:53;17.33;;;13.95;;
32214;SDS011;18708;53.124;23.190;2023-06-22T06:19:19;17.58;;;14.30;;
32214;SDS011;18708;53.124;23.190;2023-06-22T06:21:45;17.05;;;13.32;;
32214;SDS011;18708;53.124;23.190;2023-06-22T06:24:11;15.93;;;12.95;;
32214;SDS011;18708;53.124;23.190;2023-06-22T06:26:37;18.20;;;13.88;;
32214;SDS011;18708;53.124;23.190;2023-06-22T06:29:03;15.00;;;12.40;;
32214;SDS011;18708;53.124;23.190;2023-06-22T06:31:28;14.20;;;11.93;;
32214;SDS011;18708;53.124;23.190;2023-06-22T06:33:55;15.45;;;13.38;;
32214;SDS011;18708;53.124;23.190;2023-06-22T06:36:21;16.10;;;13.35;;
32214;SDS011;18708;53.124;23.190;2023-06-22T06:38:46;15.35;;;12.88;;
32214;SDS011;18708;53.124;23.190;2023-06-22T06:41:13;15.60;;;12.13;;
32214;SDS011;18708;53.124;23.190;2023-06-22T06:43:40;15.77;;;13.30;;
32214;SDS011;18708;53.124;23.190;2023-06-22T06:46:08;17.10;;;12.82;;
32214;SDS011;18708;53.124;23.190;2023-06-22T06:48:34;14.25;;;12.32;;
32214;SDS011;18708;53.124;23.190;2023-06-22T06:51:00;16.90;;;13.48;;
32214;SDS011;18708;53.124;23.190;2023-06-22T06:53:25;15.30;;;12.00;;
32214;SDS011;18708;53.124;23.190;2023-06-22T06:55:51;13.75;;;12.35;;
32214;SDS011;18708;53.124;23.190;2023-06-22T06:58:17;16.75;;;12.68;;
32214;SDS011;18708;53.124;23.190;2023-06-22T07:00:43;13.98;;;12.02;;
32214;SDS011;18708;53.124;23.190;2023-06-22T07:03:09;14.25;;;12.05;;
32214;SDS011;18708;53.124;23.190;2023-06-22T07:05:34;13.38;;;11.98;;
32214;SDS011;18708;53.124;23.190;2023-06-22T07:08:00;14.23;;;12.35;;
32214;SDS011;18708;53.124;23.190;2023-06-22T07:10:27;14.05;;;11.52;;
32214;SDS011;18708;53.124;23.190;2023-06-22T07:12:53;13.52;;;11.52;;
32214;SDS011;18708;53.124;23.190;2023-06-22T07:15:18;19.63;;;11.85;;
32214;SDS011;18708;53.124;23.190;2023-06-22T07:17:44;13.32;;;11.77;;
32214;SDS011;18708;53.124;23.190;2023-06-22T07:20:10;14.93;;;12.00;;
32214;SDS011;18708;53.124;23.190;2023-06-22T07:22:39;16.30;;;12.88;;
32214;SDS011;18708;53.124;23.190;2023-06-22T07:25:12;14.13;;;11.98;;
32214;SDS011;18708;53.124;23.190;2023-06-22T07:27:45;15.45;;;13.38;;
32214;SDS011;18708;53.124;23.190;2023-06-22T07:30:21;15.35;;;12.55;;
32214;SDS011;18708;53.124;23.190;2023-06-22T07:32:48;21.23;;;12.40;;
32214;SDS011;18708;53.124;23.190;2023-06-22T07:35:13;13.45;;;12.07;;
32214;SDS011;18708;53.124;23.190;2023-06-22T07:37:41;13.77;;;12.35;;
32214;SDS011;18708;53.124;23.190;2023-06-22T07:40:07;17.35;;;11.48;;
32214;SDS011;18708;53.124;23.190;2023-06-22T07:42:33;15.60;;;13.02;;
32214;SDS011;18708;53.124;23.190;2023-06-22T07:44:59;17.52;;;13.15;;
32214;SDS011;18708;53.124;23.190;2023-06-22T07:47:25;13.68;;;12.23;;
32214;SDS011;18708;53.124;23.190;2023-06-22T07:49:53;13.00;;;11.68;;
32214;SDS011;18708;53.124;23.190;2023-06-22T07:52:20;18.00;;;12.98;;
32214;SDS011;18708;53.124;23.190;2023-06-22T07:54:46;14.73;;;12.68;;
32214;SDS011;18708;53.124;23.190;2023-06-22T07:57:12;18.50;;;13.13;;
32214;SDS011;18708;53.124;23.190;2023-06-22T07:59:38;13.50;;;11.93;;
32214;SDS011;18708;53.124;23.190;2023-06-22T08:02:04;13.23;;;11.40;;
32214;SDS011;18708;53.124;23.190;2023-06-22T08:04:30;14.25;;;12.23;;
32214;SDS011;18708;53.124;23.190;2023-06-22T08:06:59;14.07;;;12.65;;
32214;SDS011;18708;53.124;23.190;2023-06-22T08:09:24;16.67;;;13.15;;
32214;SDS011;18708;53.124;23.190;2023-06-22T08:11:50;15.07;;;12.82;;
32214;SDS011;18708;53.124;23.190;2023-06-22T08:14:16;13.85;;;11.60;;
32214;SDS011;18708;53.124;23.190;2023-06-22T08:16:41;15.07;;;11.77;;
32214;SDS011;18708;53.124;23.190;2023-06-22T08:19:07;16.08;;;13.45;;
32214;SDS011;18708;53.124;23.190;2023-06-22T08:21:33;16.58;;;13.50;;
32214;SDS011;18708;53.124;23.190;2023-06-22T08:23:58;15.43;;;12.85;;
32214;SDS011;18708;53.124;23.190;2023-06-22T08:26:24;16.25;;;13.35;;
32214;SDS011;18708;53.124;23.190;2023-06-22T08:28:50;17.30;;;15.05;;
32214;SDS011;18708;53.124;23.190;2023-06-22T08:31:15;15.15;;;13.55;;
32214;SDS011;18708;53.124;23.190;2023-06-22T08:33:41;15.02;;;12.75;;
32214;SDS011;18708;53.124;23.190;2023-06-22T08:36:08;16.27;;;14.10;;
32214;SDS011;18708;53.124;23.190;2023-06-22T08:38:36;17.55;;;14.15;;
32214;SDS011;18708;53.124;23.190;2023-06-22T08:41:01;15.35;;;12.90;;
32214;SDS011;18708;53.124;23.190;2023-06-22T08:43:27;21.10;;;14.40;;
32214;SDS011;18708;53.124;23.190;2023-06-22T08:45:53;13.77;;;12.00;;
32214;SDS011;18708;53.124;23.190;2023-06-22T08:48:19;14.63;;;11.90;;
32214;SDS011;18708;53.124;23.190;2023-06-22T08:50:44;13.80;;;12.25;;
32214;SDS011;18708;53.124;23.190;2023-06-22T08:53:10;14.63;;;12.20;;
32214;SDS011;18708;53.124;23.190;2023-06-22T08:55:36;15.75;;;12.35;;
32214;SDS011;18708;53.124;23.190;2023-06-22T08:58:01;14.60;;;12.35;;
32214;SDS011;18708;53.124;23.190;2023-06-22T09:00:28;13.40;;;11.82;;
32214;SDS011;18708;53.124;23.190;2023-06-22T09:02:57;14.82;;;12.40;;
32214;SDS011;18708;53.124;23.190;2023-06-22T09:05:24;15.25;;;13.60;;
32214;SDS011;18708;53.124;23.190;2023-06-22T09:07:53;14.65;;;12.93;;
32214;SDS011;18708;53.124;23.190;2023-06-22T09:10:21;15.98;;;13.68;;
32214;SDS011;18708;53.124;23.190;2023-06-22T09:12:47;16.88;;;14.00;;
32214;SDS011;18708;53.124;23.190;2023-06-22T09:15:13;16.15;;;13.95;;
32214;SDS011;18708;53.124;23.190;2023-06-22T09:17:40;16.90;;;14.63;;
32214;SDS011;18708;53.124;23.190;2023-06-22T09:20:06;18.25;;;15.05;;
32214;SDS011;18708;53.124;23.190;2023-06-22T09:22:35;19.65;;;16.02;;
32214;SDS011;18708;53.124;23.190;2023-06-22T09:25:01;24.40;;;18.13;;
32214;SDS011;18708;53.124;23.190;2023-06-22T09:27:28;18.55;;;15.48;;
32214;SDS011;18708;53.124;23.190;2023-06-22T09:29:53;20.33;;;17.65;;
32214;SDS011;18708;53.124;23.190;2023-06-22T09:32:19;20.05;;;16.40;;
32214;SDS011;18708;53.124;23.190;2023-06-22T09:34:45;24.33;;;19.20;;
32214;SDS011;18708;53.124;23.190;2023-06-22T09:37:10;23.77;;;19.45;;
32214;SDS011;18708;53.124;23.190;2023-06-22T09:39:36;23.08;;;18.88;;
32214;SDS011;18708;53.124;23.190;2023-06-22T09:42:02;24.35;;;21.10;;
32214;SDS011;18708;53.124;23.190;2023-06-22T09:44:28;25.83;;;20.88;;
32214;SDS011;18708;53.124;23.190;2023-06-22T09:46:53;25.40;;;20.75;;
32214;SDS011;18708;53.124;23.190;2023-06-22T09:49:19;26.67;;;21.42;;
32214;SDS011;18708;53.124;23.190;2023-06-22T09:51:44;28.23;;;22.27;;
32214;SDS011;18708;53.124;23.190;2023-06-22T09:54:10;29.73;;;22.63;;
32214;SDS011;18708;53.124;23.190;2023-06-22T09:56:36;32.90;;;24.13;;
32214;SDS011;18708;53.124;23.190;2023-06-22T09:59:02;32.15;;;23.33;;
32214;SDS011;18708;53.124;23.190;2023-06-22T10:01:28;32.15;;;23.13;;
32214;SDS011;18708;53.124;23.190;2023-06-22T10:03:55;32.60;;;23.95;;
32214;SDS011;18708;53.124;23.190;2023-06-22T10:06:21;36.17;;;27.10;;
32214;SDS011;18708;53.124;23.190;2023-06-22T10:08:47;30.83;;;23.25;;
32214;SDS011;18708;53.124;23.190;2023-06-22T10:11:16;29.05;;;22.67;;
32214;SDS011;18708;53.124;23.190;2023-06-22T10:13:41;29.33;;;22.17;;
32214;SDS011;18708;53.124;23.190;2023-06-22T10:16:07;28.77;;;21.25;;
32214;SDS011;18708;53.124;23.190;2023-06-22T10:18:33;33.70;;;22.42;;
32214;SDS011;18708;53.124;23.190;2023-06-22T10:20:58;25.55;;;20.77;;
32214;SDS011;18708;53.124;23.190;2023-06-22T10:23:24;25.63;;;20.40;;
32214;SDS011;18708;53.124;23.190;2023-06-22T10:25:50;26.92;;;19.40;;
32214;SDS011;18708;53.124;23.190;2023-06-22T10:28:16;24.10;;;17.77;;
32214;SDS011;18708;53.124;23.190;2023-06-22T10:30:41;23.55;;;18.75;;
32214;SDS011;18708;53.124;23.190;2023-06-22T10:33:08;22.67;;;17.08;;
32214;SDS011;18708;53.124;23.190;2023-06-22T10:35:35;15.70;;;13.48;;
32214;SDS011;18708;53.124;23.190;2023-06-22T10:38:02;16.45;;;13.00;;
32214;SDS011;18708;53.124;23.190;2023-06-22T10:40:28;18.73;;;12.63;;
32214;SDS011;18708;53.124;23.190;2023-06-22T10:42:54;16.38;;;12.35;;
32214;SDS011;18708;53.124;23.190;2023-06-22T10:45:20;17.25;;;12.43;;
32214;SDS011;18708;53.124;23.190;2023-06-22T10:47:45;15.45;;;11.77;;
32214;SDS011;18708;53.124;23.190;2023-06-22T10:50:11;15.48;;;11.07;;
32214;SDS011;18708;53.124;23.190;2023-06-22T10:52:37;14.73;;;11.13;;
32214;SDS011;18708;53.124;23.190;2023-06-22T10:55:03;13.43;;;10.52;;
32214;SDS011;18708;53.124;23.190;2023-06-22T10:57:29;13.57;;;10.63;;
32214;SDS011;18708;53.124;23.190;2023-06-22T10:59:55;16.67;;;10.52;;
32214;SDS011;18708;53.124;23.190;2023-06-22T11:02:21;12.98;;;10.40;;
32214;SDS011;18708;53.124;23.190;2023-06-22T11:04:46;14.80;;;10.85;;
32214;SDS011;18708;53.124;23.190;2023-06-22T11:07:12;11.55;;;10.02;;
32214;SDS011;18708;53.124;23.190;2023-06-22T11:09:38;12.27;;;10.13;;
32214;SDS011;18708;53.124;23.190;2023-06-22T11:12:05;14.95;;;10.63;;
32214;SDS011;18708;53.124;23.190;2023-06-22T11:14:31;12.63;;;10.80;;
32214;SDS011;18708;53.124;23.190;2023-06-22T11:16:58;12.25;;;9.63;;
32214;SDS011;18708;53.124;23.190;2023-06-22T11:19:24;11.55;;;9.27;;
32214;SDS011;18708;53.124;23.190;2023-06-22T11:21:50;13.43;;;9.07;;
32214;SDS011;18708;53.124;23.190;2023-06-22T11:24:16;12.23;;;8.63;;
32214;SDS011;18708;53.124;23.190;2023-06-22T11:26:42;10.98;;;8.43;;
32214;SDS011;18708;53.124;23.190;2023-06-22T11:29:08;13.43;;;9.20;;
32214;SDS011;18708;53.124;23.190;2023-06-22T11:31:34;9.80;;;8.55;;
32214;SDS011;18708;53.124;23.190;2023-06-22T11:34:00;12.68;;;8.45;;
32214;SDS011;18708;53.124;23.190;2023-06-22T11:36:26;12.32;;;8.88;;
32214;SDS011;18708;53.124;23.190;2023-06-22T11:38:54;10.18;;;8.50;;
32214;SDS011;18708;53.124;23.190;2023-06-22T11:41:19;9.88;;;7.55;;
32214;SDS011;18708;53.124;23.190;2023-06-22T11:43:45;8.50;;;7.40;;
32214;SDS011;18708;53.124;23.190;2023-06-22T11:46:11;8.77;;;7.35;;
32214;SDS011;18708;53.124;23.190;2023-06-22T11:48:37;7.32;;;6.22;;
32214;SDS011;18708;53.124;23.190;2023-06-22T11:51:03;7.57;;;6.70;;
32214;SDS011;18708;53.124;23.190;2023-06-22T11:53:29;8.07;;;6.40;;
32214;SDS011;18708;53.124;23.190;2023-06-22T11:55:55;7.03;;;6.32;;
32214;SDS011;18708;53.124;23.190;2023-06-22T11:58:21;8.82;;;6.13;;
32214;SDS011;18708;53.124;23.190;2023-06-22T12:00:47;7.18;;;5.88;;
32214;SDS011;18708;53.124;23.190;2023-06-22T12:03:13;8.07;;;6.00;;
32214;SDS011;18708;53.124;23.190;2023-06-22T12:05:40;7.90;;;6.25;;
32214;SDS011;18708;53.124;23.190;2023-06-22T12:08:06;7.25;;;5.68;;
32214;SDS011;18708;53.124;23.190;2023-06-22T12:10:31;7.07;;;6.38;;
32214;SDS011;18708;53.124;23.190;2023-06-22T12:12:57;8.35;;;6.28;;
32214;SDS011;18708;53.124;23.190;2023-06-22T12:15:25;9.07;;;6.70;;
32214;SDS011;18708;53.124;23.190;2023-06-22T12:17:51;8.55;;;5.90;;
32214;SDS011;18708;53.124;23.190;2023-06-22T12:20:17;7.63;;;5.90;;
32214;SDS011;18708;53.124;23.190;2023-06-22T12:22:43;9.85;;;7.15;;
32214;SDS011;18708;53.124;23.190;2023-06-22T12:25:09;8.50;;;6.35;;
32214;SDS011;18708;53.124;23.190;2023-06-22T12:27:35;10.85;;;6.88;;
32214;SDS011;18708;53.124;23.190;2023-06-22T12:30:01;10.82;;;6.40;;
32214;SDS011;18708;53.124;23.190;2023-06-22T12:32:28;7.20;;;6.07;;
32214;SDS011;18708;53.124;23.190;2023-06-22T12:34:53;8.75;;;6.65;;
32214;SDS011;18708;53.124;23.190;2023-06-22T12:37:20;8.63;;;6.63;;
32214;SDS011;18708;53.124;23.190;2023-06-22T12:39:45;7.25;;;6.15;;
32214;SDS011;18708;53.124;23.190;2023-06-22T12:42:11;7.03;;;6.07;;
32214;SDS011;18708;53.124;23.190;2023-06-22T12:44:38;8.23;;;6.47;;
32214;SDS011;18708;53.124;23.190;2023-06-22T12:47:05;9.23;;;6.53;;
32214;SDS011;18708;53.124;23.190;2023-06-22T12:49:31;7.47;;;6.57;;
32214;SDS011;18708;53.124;23.190;2023-06-22T12:51:56;7.47;;;6.45;;
32214;SDS011;18708;53.124;23.190;2023-06-22T12:54:22;8.32;;;6.70;;
32214;SDS011;18708;53.124;23.190;2023-06-22T12:56:49;8.38;;;6.25;;
32214;SDS011;18708;53.124;23.190;2023-06-22T12:59:15;7.63;;;6.53;;
32214;SDS011;18708;53.124;23.190;2023-06-22T13:01:42;6.82;;;5.85;;
32214;SDS011;18708;53.124;23.190;2023-06-22T13:04:09;7.55;;;5.90;;
32214;SDS011;18708;53.124;23.190;2023-06-22T13:06:36;6.40;;;5.53;;
32214;SDS011;18708;53.124;23.190;2023-06-22T13:09:02;7.85;;;5.88;;
32214;SDS011;18708;53.124;23.190;2023-06-22T13:11:30;8.63;;;6.32;;
32214;SDS011;18708;53.124;23.190;2023-06-22T13:13:55;7.60;;;6.00;;
32214;SDS011;18708;53.124;23.190;2023-06-22T13:16:21;7.20;;;5.85;;
32214;SDS011;18708;53.124;23.190;2023-06-22T13:18:47;8.23;;;6.43;;
32214;SDS011;18708;53.124;23.190;2023-06-22T13:21:12;7.68;;;6.22;;
32214;SDS011;18708;53.124;23.190;2023-06-22T13:23:39;7.18;;;6.00;;
32214;SDS011;18708;53.124;23.190;2023-06-22T13:26:05;7.72;;;5.43;;
32214;SDS011;18708;53.124;23.190;2023-06-22T13:28:30;6.53;;;5.82;;
32214;SDS011;18708;53.124;23.190;2023-06-22T13:30:57;7.00;;;5.75;;
32214;SDS011;18708;53.124;23.190;2023-06-22T13:33:22;9.20;;;5.95;;
32214;SDS011;18708;53.124;23.190;2023-06-22T13:35:48;7.07;;;6.10;;
32214;SDS011;18708;53.124;23.190;2023-06-22T13:38:14;8.10;;;6.35;;
32214;SDS011;18708;53.124;23.190;2023-06-22T13:40:40;7.35;;;5.72;;
32214;SDS011;18708;53.124;23.190;2023-06-22T13:43:06;6.80;;;5.53;;
32214;SDS011;18708;53.124;23.190;2023-06-22T13:45:31;8.57;;;5.80;;
32214;SDS011;18708;53.124;23.190;2023-06-22T13:47:57;6.72;;;5.90;;
32214;SDS011;18708;53.124;23.190;2023-06-22T13:50:23;6.05;;;5.45;;
32214;SDS011;18708;53.124;23.190;2023-06-22T13:52:49;7.00;;;5.20;;
32214;SDS011;18708;53.124;23.190;2023-06-22T13:55:14;9.15;;;5.30;;
32214;SDS011;18708;53.124;23.190;2023-06-22T13:57:40;6.95;;;4.82;;
32214;SDS011;18708;53.124;23.190;2023-06-22T14:00:07;7.07;;;5.85;;
32214;SDS011;18708;53.124;23.190;2023-06-22T14:02:34;5.47;;;4.57;;
32214;SDS011;18708;53.124;23.190;2023-06-22T14:05:00;5.93;;;4.85;;
32214;SDS011;18708;53.124;23.190;2023-06-22T14:07:25;4.88;;;4.30;;
32214;SDS011;18708;53.124;23.190;2023-06-22T14:09:51;5.88;;;5.22;;
32214;SDS011;18708;53.124;23.190;2023-06-22T14:12:17;5.47;;;4.82;;
32214;SDS011;18708;53.124;23.190;2023-06-22T14:14:45;10.43;;;5.47;;
32214;SDS011;18708;53.124;23.190;2023-06-22T14:17:11;5.93;;;4.72;;
32214;SDS011;18708;53.124;23.190;2023-06-22T14:19:36;5.55;;;4.22;;
32214;SDS011;18708;53.124;23.190;2023-06-22T14:22:02;6.68;;;5.20;;